createdAt,value
2019-05-26T00:02:22.724Z,8.53
2019-05-26T00:04:53.391Z,9.47
2019-05-26T00:07:30.502Z,10.73
2019-05-26T00:09:56.562Z,7.40
2019-05-26T00:12:27.231Z,7.30
2019-05-26T00:14:58.013Z,7.77
2019-05-26T00:17:28.931Z,8.63
2019-05-26T00:19:59.754Z,9.47
2019-05-26T00:22:30.829Z,11.93
2019-05-26T00:25:01.648Z,9.00
2019-05-26T00:27:32.284Z,9.77
2019-05-26T00:30:03.883Z,8.50
2019-05-26T00:32:34.768Z,11.97
2019-05-26T00:35:09.140Z,9.27
2019-05-26T00:37:49.279Z,11.80
2019-05-26T00:40:12.664Z,9.53
2019-05-26T00:42:43.994Z,11.47
2019-05-26T00:45:15.215Z,11.17
2019-05-26T00:47:46.017Z,11.00
2019-05-26T00:50:18.648Z,9.73
2019-05-26T00:52:49.521Z,11.03
2019-05-26T00:55:20.754Z,11.60
2019-05-26T00:57:51.508Z,7.67
2019-05-26T01:00:39.928Z,9.63
2019-05-26T01:03:11.137Z,10.47
2019-05-26T01:05:42.027Z,8.97
2019-05-26T01:08:15.501Z,14.57
2019-05-26T01:10:47.995Z,9.53
2019-05-26T01:13:18.739Z,10.37
2019-05-26T01:15:50.819Z,10.00
2019-05-26T01:18:22.849Z,12.30
2019-05-26T01:20:56.482Z,9.37
2019-05-26T01:23:27.114Z,10.10
2019-05-26T01:25:57.740Z,11.47
2019-05-26T01:28:28.586Z,10.60
2019-05-26T01:30:59.328Z,11.90
2019-05-26T01:33:30.027Z,8.00
2019-05-26T01:36:00.949Z,14.57
2019-05-26T01:38:32.483Z,9.47
2019-05-26T01:41:03.177Z,8.67
2019-05-26T01:43:34.021Z,8.83
2019-05-26T01:46:04.672Z,10.17
2019-05-26T01:48:35.351Z,11.53
2019-05-26T01:51:06.205Z,11.53
2019-05-26T01:53:36.958Z,9.87
2019-05-26T01:56:07.763Z,7.23
2019-05-26T01:58:38.575Z,8.63
2019-05-26T02:01:09.271Z,11.07
2019-05-26T02:03:40.153Z,10.20
2019-05-26T02:06:10.972Z,8.30
2019-05-26T02:08:41.739Z,9.13
2019-05-26T02:11:12.547Z,8.93
2019-05-26T02:13:43.193Z,8.33
2019-05-26T02:16:13.841Z,9.57
2019-05-26T02:18:44.474Z,11.00
2019-05-26T02:21:15.133Z,8.67
2019-05-26T02:23:45.854Z,11.47
2019-05-26T02:26:16.552Z,8.30
2019-05-26T02:28:47.937Z,9.77
2019-05-26T02:31:18.758Z,11.70
2019-05-26T02:33:49.489Z,9.20
2019-05-26T02:36:20.401Z,10.83
2019-05-26T02:39:01.860Z,7.90
2019-05-26T02:41:23.516Z,12.93
2019-05-26T02:43:54.267Z,9.30
2019-05-26T02:46:24.971Z,8.57
2019-05-26T02:48:55.832Z,9.50
2019-05-26T02:51:26.462Z,10.33
2019-05-26T02:53:57.078Z,8.17
2019-05-26T02:56:27.760Z,9.53
2019-05-26T02:58:59.557Z,9.80
2019-05-26T03:01:31.571Z,9.80
2019-05-26T03:04:02.286Z,7.57
2019-05-26T03:06:34.365Z,10.30
2019-05-26T03:09:21.988Z,11.20
2019-05-26T03:11:41.004Z,7.87
2019-05-26T03:14:13.412Z,8.70
2019-05-26T03:16:46.581Z,7.97
2019-05-26T03:19:19.460Z,7.23
2019-05-26T03:21:52.387Z,6.93
2019-05-26T03:24:25.391Z,8.10
2019-05-26T03:26:56.951Z,6.33
2019-05-26T03:29:27.594Z,8.20
2019-05-26T03:31:58.768Z,8.87
2019-05-26T03:34:29.593Z,9.03
2019-05-26T03:37:00.195Z,7.13
2019-05-26T03:39:43.739Z,7.77
2019-05-26T03:42:03.372Z,11.50
2019-05-26T03:44:34.001Z,9.70
2019-05-26T03:47:04.556Z,13.80
2019-05-26T03:49:35.351Z,10.17
2019-05-26T03:52:07.132Z,8.80
2019-05-26T03:54:37.878Z,8.37
2019-05-26T03:57:08.492Z,9.03
2019-05-26T03:59:39.126Z,8.07
2019-05-26T04:02:10.226Z,8.40
2019-05-26T04:04:40.786Z,8.37
2019-05-26T04:07:11.450Z,9.17
2019-05-26T04:10:02.569Z,10.83
2019-05-26T04:12:14.466Z,7.73
2019-05-26T04:14:45.203Z,10.23
2019-05-26T04:17:15.962Z,7.47
2019-05-26T04:19:46.599Z,8.37
2019-05-26T04:22:17.534Z,8.33
2019-05-26T04:24:48.413Z,8.33
2019-05-26T04:27:19.337Z,7.57
2019-05-26T04:29:50.105Z,7.33
2019-05-26T04:32:21.134Z,7.63
2019-05-26T04:34:51.968Z,10.13
2019-05-26T04:37:23.065Z,10.03
2019-05-26T04:39:54.652Z,6.83
2019-05-26T04:42:25.509Z,9.00
2019-05-26T04:44:56.180Z,8.70
2019-05-26T04:47:27.437Z,7.90
2019-05-26T04:49:59.856Z,8.63
2019-05-26T04:52:31.882Z,7.10
2019-05-26T04:55:04.009Z,8.17
2019-05-26T04:57:35.001Z,13.80
2019-05-26T05:00:09.263Z,7.57
2019-05-26T05:02:40.239Z,9.97
2019-05-26T05:05:11.871Z,7.90
2019-05-26T05:07:42.634Z,9.03
2019-05-26T05:10:13.541Z,9.07
2019-05-26T05:12:44.340Z,9.43
2019-05-26T05:15:15.644Z,26.10
2019-05-26T05:17:46.364Z,7.50
2019-05-26T05:20:17.027Z,7.10
2019-05-26T05:22:48.796Z,11.93
2019-05-26T05:25:19.582Z,8.13
2019-05-26T05:27:50.380Z,7.67
2019-05-26T05:30:22.055Z,8.80
2019-05-26T05:32:52.801Z,7.20
2019-05-26T05:35:23.678Z,8.27
2019-05-26T05:37:54.373Z,9.97
2019-05-26T05:40:24.993Z,8.57
2019-05-26T05:42:55.845Z,7.93
2019-05-26T05:45:26.557Z,8.27
2019-05-26T05:47:57.643Z,10.53
2019-05-26T05:50:28.341Z,7.30
2019-05-26T05:52:58.906Z,10.83
2019-05-26T05:55:35.022Z,8.10
2019-05-26T05:58:06.675Z,6.77
2019-05-26T06:00:37.307Z,7.60
2019-05-26T06:03:08.025Z,9.43
2019-05-26T06:05:40.182Z,7.57
2019-05-26T06:08:10.905Z,7.97
2019-05-26T06:10:41.529Z,7.23
2019-05-26T06:13:13.701Z,9.97
2019-05-26T06:15:44.437Z,6.33
2019-05-26T06:18:15.501Z,7.37
2019-05-26T06:20:46.147Z,6.57
2019-05-26T06:23:16.990Z,6.87
2019-05-26T06:25:49.147Z,9.27
2019-05-26T06:28:20.103Z,6.60
2019-05-26T06:30:51.116Z,7.37
2019-05-26T06:33:21.891Z,6.60
2019-05-26T06:35:52.542Z,6.87
2019-05-26T06:38:24.145Z,6.67
2019-05-26T06:40:54.848Z,9.43
2019-05-26T06:43:28.489Z,6.97
2019-05-26T06:45:59.332Z,8.63
2019-05-26T06:48:29.956Z,8.57
2019-05-26T06:51:00.831Z,7.37
2019-05-26T06:53:31.501Z,5.90
2019-05-26T06:56:02.426Z,8.53
2019-05-26T06:58:33.478Z,5.73
2019-05-26T07:01:04.894Z,7.33
2019-05-26T07:03:35.604Z,5.83
2019-05-26T07:06:06.532Z,7.70
2019-05-26T07:08:37.440Z,5.13
2019-05-26T07:11:08.122Z,6.93
2019-05-26T07:13:39.055Z,5.03
2019-05-26T07:16:12.069Z,5.50
2019-05-26T07:18:43.023Z,7.95
2019-05-26T07:21:13.837Z,4.83
2019-05-26T07:23:44.647Z,3.87
2019-05-26T07:26:15.978Z,6.35
2019-05-26T07:28:46.826Z,5.80
2019-05-26T07:31:17.783Z,8.48
2019-05-26T07:33:48.726Z,5.55
2019-05-26T07:36:19.527Z,5.15
2019-05-26T07:38:50.436Z,5.85
2019-05-26T07:41:21.193Z,5.67
2019-05-26T07:43:52.095Z,3.60
2019-05-26T07:46:22.868Z,5.67
2019-05-26T07:48:53.480Z,7.53
2019-05-26T07:51:24.379Z,4.55
2019-05-26T07:53:56.194Z,5.95
2019-05-26T07:56:27.114Z,4.87
2019-05-26T07:58:59.639Z,3.30
2019-05-26T08:01:36.313Z,3.72
2019-05-26T08:04:03.071Z,4.95
2019-05-26T08:06:33.761Z,5.30
2019-05-26T08:09:07.547Z,5.08
2019-05-26T08:11:38.306Z,4.75
2019-05-26T08:14:09.259Z,4.58
2019-05-26T08:16:40.140Z,4.28
2019-05-26T08:19:12.634Z,4.62
2019-05-26T08:21:44.001Z,5.95
2019-05-26T08:24:16.629Z,8.68
2019-05-26T08:26:47.567Z,4.62
2019-05-26T08:29:18.969Z,4.42
2019-05-26T08:31:50.052Z,4.50
2019-05-26T08:34:21.002Z,3.77
2019-05-26T08:36:51.765Z,5.25
2019-05-26T08:39:22.523Z,3.80
2019-05-26T08:41:53.793Z,4.33
2019-05-26T08:44:26.181Z,3.20
2019-05-26T08:46:57.457Z,3.67
2019-05-26T08:49:28.282Z,6.05
2019-05-26T08:51:59.429Z,5.22
2019-05-26T08:54:30.147Z,7.75
2019-05-26T08:57:04.016Z,5.87
2019-05-26T08:59:36.009Z,5.40
2019-05-26T09:02:08.241Z,4.53
2019-05-26T09:04:44.481Z,5.60
2019-05-26T09:07:16.509Z,6.87
2019-05-26T09:09:50.049Z,6.00
2019-05-26T09:12:21.578Z,4.33
2019-05-26T09:14:52.256Z,3.20
2019-05-26T09:17:26.831Z,5.67
2019-05-26T09:20:12.378Z,5.03
2019-05-26T09:22:46.226Z,4.53
2019-05-26T09:25:19.407Z,6.45
2019-05-26T09:27:50.589Z,4.17
2019-05-26T09:30:24.067Z,5.45
2019-05-26T09:32:56.022Z,3.75
2019-05-26T09:35:28.246Z,4.50
2019-05-26T09:37:59.800Z,5.45
2019-05-26T09:40:31.051Z,6.33
2019-05-26T09:43:15.007Z,4.65
2019-05-26T09:45:38.361Z,5.10
2019-05-26T09:48:13.434Z,5.58
2019-05-26T09:50:44.273Z,4.08
2019-05-26T09:53:17.119Z,3.50
2019-05-26T09:55:47.908Z,4.85
2019-05-26T09:58:20.286Z,3.85
2019-05-26T10:00:52.148Z,6.15
2019-05-26T10:03:26.331Z,3.77
2019-05-26T10:05:58.285Z,5.65
2019-05-26T10:08:30.138Z,3.60
2019-05-26T10:11:00.754Z,3.60
2019-05-26T10:13:32.388Z,5.00
2019-05-26T10:16:04.273Z,4.00
2019-05-26T10:18:36.213Z,3.87
2019-05-26T10:21:11.291Z,5.10
2019-05-26T10:23:43.672Z,6.72
2019-05-26T10:26:16.803Z,4.80
2019-05-26T10:28:47.709Z,3.05
2019-05-26T10:31:18.583Z,3.47
2019-05-26T10:33:49.510Z,5.83
2019-05-26T10:36:20.250Z,7.15
2019-05-26T10:38:50.930Z,2.30
2019-05-26T10:41:21.674Z,2.22
2019-05-26T10:43:59.352Z,2.92
2019-05-26T10:46:30.249Z,3.42
2019-05-26T10:49:01.256Z,3.60
2019-05-26T10:51:32.129Z,2.72
2019-05-26T10:54:03.060Z,4.53
2019-05-26T10:56:34.932Z,6.72
2019-05-26T10:59:07.891Z,2.67
2019-05-26T11:01:40.850Z,2.70
2019-05-26T11:04:11.930Z,4.60
2019-05-26T11:06:42.827Z,2.35
2019-05-26T11:09:14.692Z,3.30
2019-05-26T11:11:45.620Z,3.35
2019-05-26T11:14:16.654Z,2.62
2019-05-26T11:16:52.769Z,1.80
2019-05-26T11:19:23.989Z,5.08
2019-05-26T11:21:58.345Z,4.20
2019-05-26T11:24:30.133Z,2.27
2019-05-26T11:27:14.678Z,4.05
2019-05-26T11:29:45.827Z,2.35
2019-05-26T11:32:17.054Z,2.27
2019-05-26T11:35:01.012Z,2.15
2019-05-26T11:37:23.577Z,3.50
2019-05-26T11:39:54.970Z,1.98
2019-05-26T11:42:25.886Z,3.37
2019-05-26T11:44:57.789Z,5.45
2019-05-26T11:47:28.524Z,3.85
2019-05-26T11:49:59.318Z,3.02
2019-05-26T11:52:30.510Z,4.00
2019-05-26T11:55:01.349Z,3.37
2019-05-26T11:57:36.272Z,4.53
2019-05-26T12:00:15.140Z,2.25
2019-05-26T12:02:47.282Z,2.80
2019-05-26T12:05:18.235Z,3.85
2019-05-26T12:07:48.923Z,5.67
2019-05-26T12:10:20.149Z,10.72
2019-05-26T12:12:51.157Z,4.03
2019-05-26T12:15:22.439Z,3.25
2019-05-26T12:17:56.523Z,3.62
2019-05-26T12:20:29.222Z,3.02
2019-05-26T12:23:01.545Z,3.50
2019-05-26T12:25:34.613Z,1.70
2019-05-26T12:28:05.602Z,3.17
2019-05-26T12:30:39.652Z,2.05
2019-05-26T12:33:10.382Z,3.05
2019-05-26T12:35:45.797Z,2.52
2019-05-26T12:38:17.450Z,2.10
2019-05-26T12:40:51.174Z,3.25
2019-05-26T12:43:23.150Z,3.37
2019-05-26T12:45:54.988Z,5.37
2019-05-26T12:48:25.766Z,4.17
2019-05-26T12:50:56.582Z,4.25
2019-05-26T12:53:28.605Z,5.85
2019-05-26T12:55:59.624Z,2.72
2019-05-26T12:58:33.744Z,3.92
2019-05-26T13:01:10.237Z,1.90
2019-05-26T13:03:43.168Z,1.57
2019-05-26T13:06:17.658Z,2.70
2019-05-26T13:08:50.398Z,3.22
2019-05-26T13:11:22.918Z,1.98
2019-05-26T13:13:54.068Z,4.62
2019-05-26T13:16:25.022Z,3.65
2019-05-26T13:18:56.295Z,4.75
2019-05-26T13:21:29.166Z,2.60
2019-05-26T13:24:00.563Z,2.95
2019-05-26T13:26:31.658Z,1.45
2019-05-26T13:29:09.134Z,1.52
2019-05-26T13:31:43.319Z,4.15
2019-05-26T13:34:22.453Z,1.47
2019-05-26T13:36:56.343Z,3.22
2019-05-26T13:39:27.319Z,2.75
2019-05-26T13:42:01.170Z,2.33
2019-05-26T13:44:31.989Z,1.75
2019-05-26T13:47:02.911Z,1.50
2019-05-26T13:49:33.952Z,1.80
2019-05-26T13:52:05.525Z,2.27
2019-05-26T13:54:38.276Z,2.00
2019-05-26T13:57:10.545Z,1.65
2019-05-26T13:59:45.355Z,4.53
2019-05-26T14:02:18.773Z,2.77
2019-05-26T14:04:53.095Z,3.27
2019-05-26T14:07:24.069Z,1.32
2019-05-26T14:09:59.229Z,1.75
2019-05-26T14:12:30.608Z,1.30
2019-05-26T14:15:08.424Z,1.77
2019-05-26T14:17:40.360Z,1.52
2019-05-26T14:20:14.246Z,2.08
2019-05-26T14:22:51.010Z,3.85
2019-05-26T14:25:23.775Z,1.87
2019-05-26T14:27:58.537Z,2.12
2019-05-26T14:30:32.245Z,3.45
2019-05-26T14:33:05.824Z,2.40
2019-05-26T14:35:39.547Z,2.85
2019-05-26T14:38:10.445Z,2.45
2019-05-26T14:40:56.920Z,1.32
2019-05-26T14:43:22.764Z,3.80
2019-05-26T14:45:55.266Z,3.95
2019-05-26T14:48:27.756Z,1.77
2019-05-26T14:50:59.932Z,1.22
2019-05-26T14:53:34.835Z,2.70
2019-05-26T14:56:05.888Z,1.82
2019-05-26T14:58:39.901Z,1.25
2019-05-26T15:01:13.666Z,2.42
2019-05-26T15:03:45.152Z,1.95
2019-05-26T15:06:19.841Z,1.42
2019-05-26T15:08:52.367Z,2.87
2019-05-26T15:11:23.541Z,3.05
2019-05-26T15:13:58.438Z,1.37
2019-05-26T15:16:29.661Z,2.17
2019-05-26T15:19:03.518Z,3.92
2019-05-26T15:21:36.015Z,1.50
2019-05-26T15:24:07.002Z,2.55
2019-05-26T15:26:42.079Z,3.27
2019-05-26T15:29:13.560Z,3.02
2019-05-26T15:31:44.247Z,1.80
2019-05-26T15:34:15.043Z,4.92
2019-05-26T15:36:45.820Z,2.85
2019-05-26T15:39:16.605Z,4.42
2019-05-26T15:41:47.664Z,1.70
2019-05-26T15:44:18.689Z,4.72
2019-05-26T15:46:49.680Z,1.35
2019-05-26T15:49:20.678Z,3.25
2019-05-26T15:51:51.854Z,1.95
2019-05-26T15:54:26.568Z,2.05
2019-05-26T15:56:57.487Z,3.45
2019-05-26T15:59:28.339Z,1.60
2019-05-26T16:01:59.470Z,1.85
2019-05-26T16:04:35.062Z,1.50
2019-05-26T16:07:10.983Z,3.90
2019-05-26T16:09:41.916Z,2.27
2019-05-26T16:12:13.027Z,4.30
2019-05-26T16:14:43.913Z,2.75
2019-05-26T16:17:14.963Z,3.20
2019-05-26T16:19:46.688Z,4.00
2019-05-26T16:22:20.256Z,2.77
2019-05-26T16:24:56.048Z,3.58
2019-05-26T16:27:27.330Z,3.30
2019-05-26T16:29:59.297Z,2.12
2019-05-26T16:32:31.942Z,2.47
2019-05-26T16:35:05.286Z,3.27
2019-05-26T16:37:36.164Z,1.92
2019-05-26T16:40:09.421Z,3.12
2019-05-26T16:42:42.784Z,4.97
2019-05-26T16:45:14.218Z,5.80
2019-05-26T16:47:46.296Z,7.15
2019-05-26T16:50:37.207Z,7.60
2019-05-26T16:53:15.698Z,6.37
2019-05-26T16:55:47.516Z,9.05
2019-05-26T16:58:25.973Z,6.30
2019-05-26T17:00:59.827Z,5.83
2019-05-26T17:03:32.074Z,6.53
2019-05-26T17:06:07.812Z,4.95
2019-05-26T17:08:35.939Z,4.67
2019-05-26T17:11:09.459Z,5.10
2019-05-26T17:13:40.413Z,4.75
2019-05-26T17:16:11.791Z,4.40
2019-05-26T17:18:42.727Z,2.62
2019-05-26T17:21:18.642Z,4.95
2019-05-26T17:23:52.280Z,7.65
2019-05-26T17:26:23.529Z,2.47
2019-05-26T17:28:59.024Z,2.72
2019-05-26T17:31:30.462Z,4.37
2019-05-26T17:34:01.263Z,6.55
2019-05-26T17:36:34.560Z,3.55
2019-05-26T17:39:07.968Z,4.60
2019-05-26T17:41:39.277Z,4.42
2019-05-26T17:44:13.541Z,4.58
2019-05-26T17:46:45.954Z,5.30
2019-05-26T17:49:16.864Z,3.37
2019-05-26T17:51:48.341Z,5.95
2019-05-26T17:54:19.518Z,7.20
2019-05-26T17:56:50.410Z,5.25
2019-05-26T17:59:25.027Z,3.87
2019-05-26T18:01:56.726Z,4.40
2019-05-26T18:04:28.953Z,5.65
2019-05-26T18:06:59.867Z,4.60
2019-05-26T18:09:43.771Z,3.70
2019-05-26T18:12:05.405Z,4.35
2019-05-26T18:14:38.509Z,3.70
2019-05-26T18:17:09.949Z,6.33
2019-05-26T18:19:42.132Z,7.25
2019-05-26T18:22:16.777Z,7.75
2019-05-26T18:24:56.395Z,6.00
2019-05-26T18:27:21.537Z,7.08
2019-05-26T18:29:53.252Z,9.40
2019-05-26T18:32:25.522Z,8.08
2019-05-26T18:34:57.888Z,4.35
2019-05-26T18:37:31.850Z,3.22
2019-05-26T18:42:58.330Z,7.65
2019-05-26T18:45:30.016Z,4.10
2019-05-26T18:48:03.335Z,5.15
2019-05-26T18:50:34.148Z,7.30
2019-05-26T18:53:05.228Z,5.78
2019-05-26T18:55:36.897Z,7.45
2019-05-26T18:58:10.441Z,9.35
2019-05-26T19:00:45.317Z,7.22
2019-05-26T19:03:16.521Z,6.25
2019-05-26T19:05:47.678Z,6.75
2019-05-26T19:08:20.421Z,10.98
2019-05-26T19:10:51.529Z,8.10
2019-05-26T19:13:23.539Z,8.80
2019-05-26T19:15:55.278Z,6.15
2019-05-26T19:18:27.612Z,7.40
2019-05-26T19:20:59.401Z,5.55
2019-05-26T19:23:30.667Z,7.33
2019-05-26T19:26:04.852Z,6.95
2019-05-26T19:28:36.450Z,6.83
2019-05-26T19:31:07.957Z,8.60
2019-05-26T19:33:39.086Z,10.25
2019-05-26T19:36:10.169Z,6.90
2019-05-26T19:38:44.239Z,16.73
2019-05-26T19:41:16.796Z,9.23
2019-05-26T19:43:47.773Z,12.75
2019-05-26T19:46:19.194Z,15.50
2019-05-26T19:48:50.952Z,8.13
2019-05-26T19:51:23.065Z,6.33
2019-05-26T19:53:57.317Z,4.75
2019-05-26T19:56:30.103Z,4.47
2019-05-26T19:59:02.888Z,6.83
2019-05-26T20:01:37.024Z,5.83
2019-05-26T20:04:08.829Z,6.40
2019-05-26T20:06:43.690Z,5.40
2019-05-26T20:09:14.117Z,6.20
2019-05-26T20:11:47.708Z,6.27
2019-05-26T20:14:19.620Z,4.50
2019-05-26T20:16:51.117Z,6.57
2019-05-26T20:19:24.008Z,6.90
2019-05-26T20:21:55.628Z,6.43
2019-05-26T20:24:28.093Z,5.63
2019-05-26T20:27:00.725Z,9.23
2019-05-26T20:29:32.086Z,6.53
2019-05-26T20:32:07.524Z,7.07
2019-05-26T20:34:40.558Z,11.40
2019-05-26T20:37:13.655Z,6.47
2019-05-26T20:39:45.387Z,8.33
2019-05-26T20:42:18.625Z,6.60
2019-05-26T20:44:52.230Z,10.63
2019-05-26T20:47:29.063Z,7.47
2019-05-26T20:50:00.826Z,10.03
2019-05-26T20:52:32.325Z,9.20
2019-05-26T20:55:05.318Z,8.60
2019-05-26T20:57:36.689Z,9.07
2019-05-26T21:00:11.352Z,10.93
2019-05-26T21:02:43.694Z,13.20
2019-05-26T21:05:16.902Z,13.10
2019-05-26T21:07:48.283Z,7.80
2019-05-26T21:10:20.060Z,8.43
2019-05-26T21:12:51.006Z,9.17
2019-05-26T21:15:22.411Z,10.07
2019-05-26T21:17:54.702Z,7.53
2019-05-26T21:20:26.298Z,9.10
2019-05-26T21:22:57.219Z,12.90
2019-05-26T21:25:28.309Z,12.17
2019-05-26T21:28:00.095Z,9.23
2019-05-26T21:30:31.347Z,8.57
2019-05-26T21:33:02.759Z,10.93
2019-05-26T21:35:33.885Z,10.10
2019-05-26T21:38:06.276Z,13.87
2019-05-26T21:40:38.055Z,8.37
2019-05-26T21:43:09.162Z,11.60
2019-05-26T21:45:40.407Z,6.97
2019-05-26T21:48:11.765Z,8.33
2019-05-26T21:50:44.307Z,7.40
2019-05-26T21:53:15.658Z,8.90
2019-05-26T21:55:46.586Z,6.70
2019-05-26T21:58:17.615Z,7.20
2019-05-26T22:00:50.694Z,8.50
2019-05-26T22:03:23.484Z,7.20
2019-05-26T22:05:55.297Z,5.53
2019-05-26T22:08:26.600Z,9.00
2019-05-26T22:10:58.803Z,9.57
2019-05-26T22:13:30.431Z,8.77
2019-05-26T22:16:01.824Z,9.57
2019-05-26T22:18:33.589Z,9.60
2019-05-26T22:21:06.137Z,6.60
2019-05-26T22:23:37.186Z,8.50
2019-05-26T22:26:08.886Z,6.73
2019-05-26T22:28:40.345Z,8.00
2019-05-26T22:31:11.818Z,6.83
2019-05-26T22:33:43.038Z,11.20
2019-05-26T22:36:14.055Z,6.27
2019-05-26T22:38:45.822Z,9.53
2019-05-26T22:41:17.530Z,10.27
2019-05-26T22:43:49.123Z,10.70
2019-05-26T22:46:20.438Z,7.53
2019-05-26T22:48:52.059Z,10.87
2019-05-26T22:51:23.339Z,7.77
2019-05-26T22:53:56.360Z,8.57
2019-05-26T22:56:28.156Z,12.73
2019-05-26T22:58:59.717Z,10.43
2019-05-26T23:01:31.710Z,9.13
2019-05-26T23:04:04.501Z,8.43
2019-05-26T23:06:37.626Z,9.37
2019-05-26T23:09:09.117Z,12.00
2019-05-26T23:11:41.942Z,8.87
2019-05-26T23:14:14.665Z,8.13
2019-05-26T23:16:46.983Z,9.17
2019-05-26T23:19:20.381Z,9.67
2019-05-26T23:21:52.487Z,7.97
2019-05-26T23:24:24.144Z,10.67
2019-05-26T23:26:56.559Z,10.17
2019-05-26T23:29:28.779Z,10.13
2019-05-26T23:32:01.346Z,8.83
2019-05-26T23:34:33.505Z,10.30
2019-05-26T23:37:07.204Z,7.43
2019-05-26T23:39:39.853Z,8.97
2019-05-26T23:42:13.737Z,8.73
2019-05-26T23:44:45.930Z,9.03
2019-05-26T23:47:18.296Z,8.57
2019-05-26T23:49:49.569Z,11.40
2019-05-26T23:52:21.821Z,8.70
2019-05-26T23:54:53.789Z,9.57
2019-05-26T23:57:25.508Z,7.93
2019-05-26T23:59:56.478Z,8.93
